CMA CGM Sambhar — 5BND2 — position and weather

sailwx.info

Track history (hours):
 
Tides and Currents Weather Stations Pressure Air Temp Water Temp Dewpoint Dewpoint Depression Visibility Wind Speed Wind Dir Waves Ship Positions

CMA CGM Sambhar

Last reported at 2018-Jun-22 23:25 UTC. Time now 2018-Jun-23 00:40 UTC.
Position N 36°30' W 008°59'.

Length 269 m; draft 10 m.

Type: Cargo ship. MMSI: 210481000.

Date/timePositionNaut miles runAvg speedWind from/ knotsBaromVisibWave heightAir tempDewpointWater temp
2018-Jun-22 23:25N 36°30' W 008°59'8614.4
2018-Jun-22 17:25N 37°45' W 009°51'615.2
2018-Jun-22 17:00N 37°51' W 009°54'715.0
2018-Jun-22 16:31N 37°59' W 009°56'815.0
2018-Jun-22 16:00N 38°06' W 009°58'815.3
2018-Jun-22 15:30N 38°13' W 009°60'815.2
2018-Jun-22 15:01N 38°21' W 010°02'815.5
2018-Jun-22 14:30N 38°29' W 010°03'915.8
2018-Jun-22 13:55N 38°38' W 010°06'919.4
2018-Jun-22 13:26N 38°47' W 010°06'920.9
2018-Jun-22 13:00N 38°56' W 010°06'1020.9
2018-Jun-22 12:30N 39°06' W 010°05'918.4
2018-Jun-22 12:00N 39°16' W 010°05'815.5
2018-Jun-22 11:30N 39°23' W 010°06'42013.6
2018-Jun-21 04:45N 45°37' W 005°48'415.6
2018-Jun-21 04:30N 45°40' W 005°43'915.7
2018-Jun-21 03:57N 45°44' W 005°33'715.9
2018-Jun-21 03:31N 45°48' W 005°24'816.4
2018-Jun-21 03:00N 45°52' W 005°14'1016.4
2018-Jun-21 02:24N 45°58' W 005°02'716.2
2018-Jun-21 01:59N 46°01' W 004°54'816.4
2018-Jun-21 01:30N 46°06' W 004°44'816.4
2018-Jun-21 01:00N 46°10' W 004°34'816.2
2018-Jun-21 00:30N 46°14' W 004°25'816.7
2018-Jun-21 00:00N 46°19' W 004°14'816.5
2018-Jun-20 23:30N 46°23' W 004°04'816.1
2018-Jun-20 23:00N 46°28' W 003°54'816.0
2018-Jun-20 22:30N 46°32' W 003°45'815.9
2018-Jun-20 22:00N 46°36' W 003°35'815.8
2018-Jun-20 21:30N 46°40' W 003°25'815.6
2018-Jun-20 21:00N 46°44' W 003°15'814.9
2018-Jun-20 20:29N 46°49' W 003°06'715.2
2018-Jun-20 20:00N 46°53' W 002°57'713.2
2018-Jun-20 19:31N 46°56' W 002°49'612.4
2018-Jun-20 19:00N 46°60' W 002°42'815.5
2018-Jun-20 18:30N 47°03' W 002°32'714.0
2018-Jun-20 18:00N 47°07' W 002°23'510.5
2018-Jun-20 17:30N 47°11' W 002°18'611.8
2018-Jun-20 17:00N 47°16' W 002°12'3 6.3
2018-Jun-20 16:31N 47°18' W 002°09'0 0.4
2018-Jun-20 15:58N 47°18' W 002°09'0 0.0
2018-Jun-20 15:26N 47°18' W 002°09'0 0.0
2018-Jun-20 14:55N 47°18' W 002°09'0 0.0
2018-Jun-20 14:22N 47°18' W 002°09'0 0.0
2018-Jun-20 13:59N 47°18' W 002°09'0 0.0
2018-Jun-20 13:23N 47°18' W 002°09'0 0.0
2018-Jun-20 12:59N 47°18' W 002°09'0 0.0
2018-Jun-20 12:20N 47°18' W 002°09'0 0.0
2018-Jun-20 11:56N 47°18' W 002°09'0 0.0
2018-Jun-20 11:13N 47°18' W 002°09'0 0.0
2018-Jun-20 10:59N 47°18' W 002°09'0 0.0
2018-Jun-20 10:29N 47°18' W 002°09'0 0.0
2018-Jun-20 09:58N 47°18' W 002°09'0 0.0
2018-Jun-20 08:31N 47°18' W 002°09'0 0.0
2018-Jun-20 08:07N 47°18' W 002°09'0 0.0
2018-Jun-20 07:59N 47°18' W 002°09'0 0.0
2018-Jun-20 07:29N 47°18' W 002°09'0 0.0
2018-Jun-20 06:59N 47°18' W 002°09'0 0.0
2018-Jun-20 06:29N 47°18' W 002°09'0 0.0
2018-Jun-20 05:58N 47°18' W 002°09'0 0.0
2018-Jun-20 05:28N 47°18' W 002°09'0 0.0
2018-Jun-20 04:58N 47°18' W 002°09'0 0.0
2018-Jun-20 04:29N 47°18' W 002°09'0 0.0
2018-Jun-20 03:59N 47°18' W 002°09'0 0.0
2018-Jun-20 03:29N 47°18' W 002°09'0 0.4
2018-Jun-20 03:00N 47°18' W 002°09'3 6.4
2018-Jun-20 02:30N 47°15' W 002°13'612.5
2018-Jun-20 02:00N 47°10' W 002°18'510.2
2018-Jun-20 01:30N 47°06' W 002°23'713.4
2018-Jun-20 01:00N 47°02' W 002°31'714.5
2018-Jun-20 00:30N 46°59' W 002°41'815.5
2018-Jun-19 23:58N 47°01' W 002°53'1315.8
2018-Jun-19 23:09N 47°04' W 003°11'417.1
2018-Jun-19 22:55N 47°05' W 003°17'917.4
2018-Jun-19 22:24N 47°10' W 003°28'816.7
2018-Jun-19 21:57N 47°14' W 003°38'816.1
2018-Jun-19 21:26N 47°17' W 003°49'5817.4
2018-Jun-19 18:08N 47°49' W 005°00'217.3
2018-Jun-19 18:00N 47°50' W 005°03'1016.9
2018-Jun-19 17:23N 47°56' W 005°16'1216.5
2018-Jun-19 16:38N 48°04' W 005°30'7411.7
2018-Jun-19 10:16N 49°14' W 004°52'613.4
2018-Jun-19 09:49N 49°16' W 004°45'4113.8
2018-Jun-19 06:49N 49°38' W 003°50'915.4
2018-Jun-19 06:16N 49°42' W 003°38'416.0
2018-Jun-19 06:00N 49°44' W 003°33'816.3
2018-Jun-19 05:30N 49°49' W 003°22'816.5
2018-Jun-19 05:00N 49°53' W 003°11'816.6
2018-Jun-19 04:30N 49°57' W 003°00'816.4
2018-Jun-19 04:00N 49°60' W 002°48'915.9
2018-Jun-19 03:25N 50°03' W 002°35'3612.9
2018-Jun-19 00:40N 49°57' W 001°40'511.5
2018-Jun-19 00:14N 49°55' W 001°33'311.4
2018-Jun-18 23:59N 49°54' W 001°29'510.8
2018-Jun-18 23:29N 49°53' W 001°21'510.3
2018-Jun-18 22:59N 49°51' W 001°13'510.7
2018-Jun-18 22:29N 49°49' W 001°06'611.7
2018-Jun-18 22:00N 49°47' W 000°58'613.0
2018-Jun-18 21:30N 49°44' W 000°49'714.1
2018-Jun-18 21:00N 49°41' W 000°39'815.1
2018-Jun-18 20:30N 49°38' W 000°28'815.6
2018-Jun-18 20:00N 49°34' W 000°17'715.0
2018-Jun-18 19:30N 49°32' W 000°07'611.5
2018-Jun-18 19:00N 49°30' E 000°02'510.1
2018-Jun-18 18:30N 49°28' E 000°09'1 2.3
2018-Jun-18 18:00N 49°27' E 000°10'0 0.0
2018-Jun-18 17:30N 49°27' E 000°10'0 0.0
2018-Jun-18 17:00N 49°27' E 000°10'0 0.0
2018-Jun-18 16:30N 49°27' E 000°10'0 0.0
2018-Jun-18 16:00N 49°27' E 000°10'0 0.0
2018-Jun-18 15:30N 49°27' E 000°10'0 0.0
2018-Jun-18 15:00N 49°27' E 000°10'0 0.0
2018-Jun-18 14:30N 49°27' E 000°10'0 0.0
2018-Jun-18 14:00N 49°27' E 000°10'0 0.0
2018-Jun-18 13:30N 49°27' E 000°10'0 0.0
2018-Jun-18 13:00N 49°27' E 000°10'0 0.0
2018-Jun-18 12:30N 49°27' E 000°10'0 0.0
2018-Jun-18 12:00N 49°27' E 000°10'0 0.0
2018-Jun-18 11:30N 49°27' E 000°10'0 0.0
2018-Jun-18 11:00N 49°27' E 000°10'0 0.0
2018-Jun-18 10:30N 49°27' E 000°10'0 0.0
2018-Jun-18 10:00N 49°27' E 000°10'0 0.0
2018-Jun-18 09:30N 49°27' E 000°10'0 0.0
2018-Jun-18 09:00N 49°27' E 000°10'0 0.0
2018-Jun-18 08:30N 49°27' E 000°10'0 0.0
2018-Jun-18 08:00N 49°27' E 000°10'0 0.0
2018-Jun-18 07:30N 49°27' E 000°10'0 0.0
2018-Jun-18 07:00N 49°27' E 000°10'0 0.0
2018-Jun-18 06:30N 49°27' E 000°10'0 0.0
2018-Jun-18 06:00N 49°27' E 000°10'0 0.0
2018-Jun-18 05:30N 49°27' E 000°10'0 0.0
2018-Jun-18 05:00N 49°27' E 000°10'0 0.0
2018-Jun-18 04:30N 49°27' E 000°10'1 1.2
2018-Jun-18 04:01N 49°27' E 000°10'4 7.4
2018-Jun-18 03:31N 49°29' E 000°05'612.6
2018-Jun-18 03:00N 49°31' W 000°05'4 7.1
2018-Jun-18 02:31N 49°32' W 000°10'3 5.6
2018-Jun-18 02:00N 49°35' W 000°11'3 5.4
2018-Jun-18 01:31N 49°38' W 000°11'3 5.1
2018-Jun-18 01:00N 49°40' W 000°11'3 5.2
2018-Jun-18 00:30N 49°43' W 000°10'2 4.0
2018-Jun-18 00:01N 49°45' W 000°09'1 2.8
2018-Jun-17 23:31N 49°44' W 000°11'1 2.6
2018-Jun-17 23:00N 49°44' W 000°13'0 0.7
2018-Jun-17 22:30N 49°44' W 000°14'3 7.0
2018-Jun-17 22:01N 49°47' W 000°12'510.2
2018-Jun-17 21:31N 49°52' W 000°09'510.8
2018-Jun-17 21:00N 49°57' W 000°08'610.9
2018-Jun-17 20:29N 50°03' W 000°07'611.0
2018-Jun-17 19:55N 50°09' W 000°07'511.0
2018-Jun-17 19:29N 50°14' W 000°06'1310.4
2018-Jun-17 18:12N 50°27' W 000°03'512.9
2018-Jun-17 17:47N 50°29' E 000°04'513.5
2018-Jun-17 17:27N 50°31' E 000°11'613.4
2018-Jun-17 17:01N 50°33' E 000°20'713.1
2018-Jun-17 16:31N 50°35' E 000°29'612.5
2018-Jun-17 16:00N 50°38' E 000°38'612.1
2018-Jun-17 15:30N 50°41' E 000°46'611.6
2018-Jun-17 15:01N 50°44' E 000°54'611.3
2018-Jun-17 14:31N 50°48' E 001°01'510.8
2018-Jun-17 14:01N 50°51' E 001°08'5 9.9
2018-Jun-17 13:30N 50°54' E 001°15'4 8.8
2018-Jun-17 13:01N 50°56' E 001°20'5 9.5
2018-Jun-17 12:30N 50°60' E 001°25'511.0
2018-Jun-17 12:01N 51°03' E 001°32'611.4
2018-Jun-17 11:30N 51°06' E 001°40'713.3
2018-Jun-17 11:00N 51°02' E 001°48'713.7
2018-Jun-17 10:31N 51°03' E 001°59'712.7
2018-Jun-17 09:57N 51°02' E 002°10'1 1.6
2018-Jun-17 09:11N 51°01' E 002°11'0 0.0
2018-Jun-17 07:44N 51°01' E 002°11'0 0.0
2018-Jun-17 06:44N 51°01' E 002°11'0 0.0
2018-Jun-17 04:56N 51°01' E 002°11'0 0.0
2018-Jun-17 04:23N 51°01' E 002°11'0 0.0
2018-Jun-17 03:56N 51°01' E 002°11'0 0.0
2018-Jun-17 03:23N 51°01' E 002°11'0 0.0
2018-Jun-17 02:59N 51°01' E 002°11'0 0.0
2018-Jun-17 02:26N 51°01' E 002°11'0 0.0
2018-Jun-17 01:56N 51°01' E 002°11'0 0.0
2018-Jun-17 01:26N 51°01' E 002°11'0 0.0
2018-Jun-17 00:59N 51°01' E 002°11'0 0.0
2018-Jun-17 00:17N 51°01' E 002°11'0 0.0
2018-Jun-16 23:23N 51°01' E 002°11'0 0.0
2018-Jun-16 22:53N 51°01' E 002°11'0 0.0
2018-Jun-16 22:11N 51°01' E 002°11'0 0.0
2018-Jun-16 21:11N 51°01' E 002°11'0 0.0
2018-Jun-16 20:59N 51°01' E 002°11'0 0.0
2018-Jun-16 20:26N 51°01' E 002°11'0 0.0
2018-Jun-16 19:59N 51°01' E 002°11'0 0.0
2018-Jun-16 16:35N 51°01' E 002°11'0 0.0
2018-Jun-16 16:17N 51°01' E 002°11'0 0.0
2018-Jun-16 14:53N 51°01' E 002°11'0 0.0
2018-Jun-16 14:05N 51°01' E 002°11'0 0.0
2018-Jun-16 11:26N 51°01' E 002°11'0 0.0
2018-Jun-16 10:59N 51°01' E 002°11'0 0.0
2018-Jun-16 08:35N 51°01' E 002°11'0 0.1
2018-Jun-16 08:29N 51°01' E 002°11'0 0.0
2018-Jun-16 07:59N 51°01' E 002°11'0 0.0
2018-Jun-16 07:31N 51°01' E 002°11'1 1.2
2018-Jun-16 07:00N 51°01' E 002°11'4 7.0
2018-Jun-16 06:30N 51°03' E 002°06'815.6
2018-Jun-16 06:00N 51°03' E 001°53'5 9.3
2018-Jun-16 05:30N 51°04' E 001°46'611.3
2018-Jun-16 05:00N 51°08' E 001°40'612.9
2018-Jun-16 04:30N 51°13' E 001°46'612.3
2018-Jun-16 04:00N 51°18' E 001°52'612.1
2018-Jun-16 03:30N 51°23' E 001°57'5 9.7
2018-Jun-16 03:00N 51°25' E 002°04'713.2
2018-Jun-16 02:30N 51°22' E 002°14'611.2
2018-Jun-16 02:00N 51°22' E 002°23'611.3
2018-Jun-16 01:30N 51°23' E 002°31'612.1
2018-Jun-16 01:00N 51°23' E 002°41'611.3
2018-Jun-16 00:30N 51°22' E 002°50'815.6
2018-Jun-16 00:00N 51°25' E 003°02'816.3
2018-Jun-15 23:30N 51°25' E 003°15'816.5
2018-Jun-15 23:00N 51°25' E 003°28'714.9
2018-Jun-15 22:30N 51°27' E 003°40'2 4.6
2018-Jun-15 21:59N 51°29' E 003°42'0 0.0
2018-Jun-15 21:29N 51°29' E 003°42'0 0.0
2018-Jun-15 20:59N 51°29' E 003°42'0 0.0
2018-Jun-15 20:29N 51°29' E 003°42'0 0.0
2018-Jun-15 19:59N 51°29' E 003°42'0 0.0
2018-Jun-15 19:29N 51°29' E 003°42'0 0.0
2018-Jun-15 18:59N 51°29' E 003°42'0 0.0
2018-Jun-15 18:29N 51°29' E 003°42'0 0.0
2018-Jun-15 17:59N 51°29' E 003°42'0 0.0
2018-Jun-15 17:26N 51°29' E 003°42'0 0.0
2018-Jun-15 16:59N 51°29' E 003°42'0 0.0
2018-Jun-15 16:29N 51°29' E 003°42'0 0.0
2018-Jun-15 15:59N 51°29' E 003°42'0 0.0
2018-Jun-15 15:29N 51°29' E 003°42'0 0.0
2018-Jun-15 14:59N 51°29' E 003°42'0 0.0
2018-Jun-15 14:29N 51°29' E 003°42'0 0.0
2018-Jun-15 13:59N 51°29' E 003°42'0 0.0
2018-Jun-15 13:29N 51°29' E 003°42'0 0.0
2018-Jun-15 12:59N 51°29' E 003°42'0 0.0
2018-Jun-15 12:29N 51°29' E 003°42'0 0.0
2018-Jun-15 11:59N 51°29' E 003°42'0 0.0
2018-Jun-15 11:26N 51°29' E 003°42'0 0.0
2018-Jun-15 10:59N 51°29' E 003°42'0 0.0
2018-Jun-15 10:29N 51°29' E 003°42'0 0.0
2018-Jun-15 09:59N 51°29' E 003°42'0 0.0
2018-Jun-15 09:29N 51°29' E 003°42'0 0.0
2018-Jun-15 08:59N 51°29' E 003°42'0 0.0
2018-Jun-15 08:29N 51°29' E 003°42'0 0.0
2018-Jun-15 07:59N 51°29' E 003°42'0 0.0
2018-Jun-15 07:26N 51°29' E 003°42'0 0.0
2018-Jun-15 06:59N 51°29' E 003°42'0 0.0
2018-Jun-15 06:29N 51°29' E 003°42'0 0.0
2018-Jun-15 05:56N 51°29' E 003°42'0 0.0
2018-Jun-15 05:29N 51°29' E 003°42'0 0.0
2018-Jun-15 04:59N 51°29' E 003°42'0 0.0
2018-Jun-15 04:29N 51°29' E 003°42'0 0.0
2018-Jun-15 03:59N 51°29' E 003°42'0 0.0
2018-Jun-15 03:29N 51°29' E 003°42'0 0.0
2018-Jun-15 02:59N 51°29' E 003°42'0 0.0
2018-Jun-15 02:29N 51°29' E 003°42'0 0.0
2018-Jun-15 01:59N 51°29' E 003°42'0 0.0
2018-Jun-15 01:29N 51°29' E 003°42'0 0.0
2018-Jun-15 00:59N 51°29' E 003°42'0 0.0
2018-Jun-15 00:29N 51°29' E 003°42'0 0.0
2018-Jun-14 23:59N 51°29' E 003°42'0 0.0
2018-Jun-14 23:29N 51°29' E 003°42'0 0.0
2018-Jun-14 22:59N 51°29' E 003°42'0 0.0
2018-Jun-14 22:29N 51°29' E 003°42'0 0.0
2018-Jun-14 21:59N 51°29' E 003°42'0 0.0
2018-Jun-14 21:29N 51°29' E 003°42'0 0.0
2018-Jun-14 20:59N 51°29' E 003°42'0 0.0
2018-Jun-14 20:29N 51°29' E 003°42'0 0.0
2018-Jun-14 19:59N 51°29' E 003°42'0 0.0
2018-Jun-14 19:29N 51°29' E 003°42'0 1.0
2018-Jun-14 19:01N 51°28' E 003°43'2 4.4
2018-Jun-14 18:30N 51°27' E 003°40'4 7.7
2018-Jun-14 18:01N 51°26' E 003°34'612.1
2018-Jun-14 17:31N 51°25' E 003°24'612.7
2018-Jun-14 17:00N 51°25' E 003°14'611.5
2018-Jun-14 16:30N 51°24' E 003°05'611.6
2018-Jun-14 16:00N 51°23' E 002°56'714.1
2018-Jun-14 15:31N 51°22' E 002°45'5 9.5
2018-Jun-14 15:01N 51°22' E 002°37'4 8.4
2018-Jun-14 14:30N 51°27' E 002°37'5 9.3
2018-Jun-14 14:00N 51°30' E 002°42'2 3.9
2018-Jun-14 13:30N 51°29' E 002°41'1 1.1
2018-Jun-14 13:00N 51°29' E 002°40'0 0.4
2018-Jun-14 12:25N 51°29' E 002°41'1 3.3
2018-Jun-14 12:00N 51°28' E 002°39'2 4.5
2018-Jun-14 11:29N 51°28' E 002°43'2 3.0
2018-Jun-14 10:54N 51°28' E 002°46'2 2.7
2018-Jun-14 10:20N 51°28' E 002°43'0 1.2
2018-Jun-14 09:59N 51°28' E 002°43'0 0.8
2018-Jun-14 09:30N 51°28' E 002°42'1 1.2
2018-Jun-14 09:00N 51°28' E 002°41'4 8.9
2018-Jun-14 08:30N 51°24' E 002°42'611.6
2018-Jun-14 08:00N 51°22' E 002°51'714.9
2018-Jun-14 07:30N 51°24' E 003°02'815.4
2018-Jun-14 07:00N 51°25' E 003°15'816.3
2018-Jun-14 06:30N 51°25' E 003°28'612.3
2018-Jun-14 06:00N 51°26' E 003°37'713.2
2018-Jun-14 05:30N 51°22' E 003°45'713.9
2018-Jun-14 05:01N 51°23' E 003°56'4 7.5
2018-Jun-14 04:30N 51°23' E 004°02'713.0
2018-Jun-14 04:00N 51°23' E 004°13'3 7.0
2018-Jun-14 03:30N 51°20' E 004°16'0 0.0
2018-Jun-14 03:00N 51°21' E 004°16'0 0.0
2018-Jun-14 02:31N 51°21' E 004°16'0 0.0
2018-Jun-14 02:00N 51°21' E 004°16'0 0.0
2018-Jun-14 01:31N 51°21' E 004°16'0 0.0
2018-Jun-14 01:00N 51°20' E 004°16'0 0.0
2018-Jun-14 00:29N 51°21' E 004°16'0 0.0
2018-Jun-14 00:01N 51°20' E 004°16'0 0.0
2018-Jun-13 23:31N 51°21' E 004°16'0 0.0
2018-Jun-13 22:59N 51°20' E 004°16'0 0.0
2018-Jun-13 22:31N 51°21' E 004°16'0 0.0
2018-Jun-13 22:01N 51°20' E 004°16'0 0.0
2018-Jun-13 21:31N 51°20' E 004°16'0 0.0
2018-Jun-13 20:59N 51°20' E 004°16'0 0.0
2018-Jun-13 20:29N 51°20' E 004°16'0 0.0
2018-Jun-13 19:59N 51°20' E 004°16'0 0.0
2018-Jun-13 19:30N 51°20' E 004°16'0 0.0
2018-Jun-13 19:00N 51°21' E 004°16'0 0.0
2018-Jun-13 18:30N 51°20' E 004°16'0 0.0
2018-Jun-13 18:01N 51°21' E 004°16'0 0.0
2018-Jun-13 17:30N 51°21' E 004°16'0 0.0
2018-Jun-13 16:59N 51°21' E 004°16'0 0.0
2018-Jun-13 16:30N 51°21' E 004°16'0 0.0
2018-Jun-13 16:00N 51°21' E 004°16'0 0.0
2018-Jun-13 15:30N 51°20' E 004°16'0 0.0
2018-Jun-13 15:01N 51°21' E 004°16'0 0.0
2018-Jun-13 14:30N 51°21' E 004°16'0 0.0
2018-Jun-13 14:00N 51°21' E 004°16'0 0.0
2018-Jun-13 13:30N 51°21' E 004°16'0 0.0
2018-Jun-13 13:00N 51°21' E 004°16'0 0.0
2018-Jun-13 12:31N 51°21' E 004°16'0 0.0
2018-Jun-13 12:00N 51°20' E 004°16'0 0.0
2018-Jun-13 11:30N 51°20' E 004°16'0 0.0
2018-Jun-13 11:00N 51°21' E 004°16'0 0.0
2018-Jun-13 10:30N 51°20' E 004°16'0 0.0
2018-Jun-13 10:00N 51°20' E 004°16'0 0.0
2018-Jun-13 09:29N 51°20' E 004°16'0 0.0
2018-Jun-13 09:00N 51°20' E 004°16'0 0.0
2018-Jun-13 08:30N 51°20' E 004°16'0 0.0
2018-Jun-13 08:01N 51°20' E 004°16'0 0.0
2018-Jun-13 07:30N 51°21' E 004°16'0 0.0
2018-Jun-13 06:59N 51°20' E 004°16'0 0.0
2018-Jun-13 06:29N 51°21' E 004°16'0 0.0
2018-Jun-13 05:57N 51°20' E 004°16'0 0.0
2018-Jun-13 05:30N 51°20' E 004°16'0 0.0
2018-Jun-13 05:01N 51°21' E 004°16'0 0.0
2018-Jun-13 04:30N 51°21' E 004°16'0 0.0
2018-Jun-13 04:01N 51°20' E 004°16'0 0.0
2018-Jun-13 03:31N 51°21' E 004°16'0 0.0
2018-Jun-13 03:01N 51°20' E 004°16'0 0.0
2018-Jun-13 02:31N 51°21' E 004°16'0 0.0
2018-Jun-13 02:01N 51°20' E 004°16'0 0.0
2018-Jun-13 01:30N 51°20' E 004°16'0 0.0
2018-Jun-13 01:00N 51°21' E 004°16'0 0.0
2018-Jun-13 00:30N 51°21' E 004°16'0 0.0
2018-Jun-13 00:00N 51°21' E 004°16'0 0.0
2018-Jun-12 23:31N 51°21' E 004°16'  
Track history (hours):
 
Tides and Currents Weather Stations Pressure Air Temp Water Temp Dewpoint Dewpoint Depression Visibility Wind Speed Wind Dir Waves Ship Positions

CMA CGM Sambhar

Last reported at 2018-Jun-22 23:25 UTC. Time now 2018-Jun-23 00:40 UTC.
Position N 36°30' W 008°59'.

Length 269 m; draft 10 m.

Type: Cargo ship. MMSI: 210481000.

Date/timePositionNaut miles runAvg speedWind from/ knotsBaromVisibWave heightAir tempDewpointWater temp
2018-Jun-22 23:25N 36°30' W 008°59'8614.4
2018-Jun-22 17:25N 37°45' W 009°51'615.2
2018-Jun-22 17:00N 37°51' W 009°54'715.0
2018-Jun-22 16:31N 37°59' W 009°56'815.0
2018-Jun-22 16:00N 38°06' W 009°58'815.3
2018-Jun-22 15:30N 38°13' W 009°60'815.2
2018-Jun-22 15:01N 38°21' W 010°02'815.5
2018-Jun-22 14:30N 38°29' W 010°03'915.8
2018-Jun-22 13:55N 38°38' W 010°06'919.4
2018-Jun-22 13:26N 38°47' W 010°06'920.9
2018-Jun-22 13:00N 38°56' W 010°06'1020.9
2018-Jun-22 12:30N 39°06' W 010°05'918.4
2018-Jun-22 12:00N 39°16' W 010°05'815.5
2018-Jun-22 11:30N 39°23' W 010°06'42013.6
2018-Jun-21 04:45N 45°37' W 005°48'415.6
2018-Jun-21 04:30N 45°40' W 005°43'915.7
2018-Jun-21 03:57N 45°44' W 005°33'715.9
2018-Jun-21 03:31N 45°48' W 005°24'816.4
2018-Jun-21 03:00N 45°52' W 005°14'1016.4
2018-Jun-21 02:24N 45°58' W 005°02'716.2
2018-Jun-21 01:59N 46°01' W 004°54'816.4
2018-Jun-21 01:30N 46°06' W 004°44'816.4
2018-Jun-21 01:00N 46°10' W 004°34'816.2
2018-Jun-21 00:30N 46°14' W 004°25'816.7
2018-Jun-21 00:00N 46°19' W 004°14'816.5
2018-Jun-20 23:30N 46°23' W 004°04'816.1
2018-Jun-20 23:00N 46°28' W 003°54'816.0
2018-Jun-20 22:30N 46°32' W 003°45'815.9
2018-Jun-20 22:00N 46°36' W 003°35'815.8
2018-Jun-20 21:30N 46°40' W 003°25'815.6
2018-Jun-20 21:00N 46°44' W 003°15'814.9
2018-Jun-20 20:29N 46°49' W 003°06'715.2
2018-Jun-20 20:00N 46°53' W 002°57'713.2
2018-Jun-20 19:31N 46°56' W 002°49'612.4
2018-Jun-20 19:00N 46°60' W 002°42'815.5
2018-Jun-20 18:30N 47°03' W 002°32'714.0
2018-Jun-20 18:00N 47°07' W 002°23'510.5
2018-Jun-20 17:30N 47°11' W 002°18'611.8
2018-Jun-20 17:00N 47°16' W 002°12'3 6.3
2018-Jun-20 16:31N 47°18' W 002°09'0 0.4
2018-Jun-20 15:58N 47°18' W 002°09'0 0.0
2018-Jun-20 15:26N 47°18' W 002°09'0 0.0
2018-Jun-20 14:55N 47°18' W 002°09'0 0.0
2018-Jun-20 14:22N 47°18' W 002°09'0 0.0
2018-Jun-20 13:59N 47°18' W 002°09'0 0.0
2018-Jun-20 13:23N 47°18' W 002°09'0 0.0
2018-Jun-20 12:59N 47°18' W 002°09'0 0.0
2018-Jun-20 12:20N 47°18' W 002°09'0 0.0
2018-Jun-20 11:56N 47°18' W 002°09'0 0.0
2018-Jun-20 11:13N 47°18' W 002°09'0 0.0
2018-Jun-20 10:59N 47°18' W 002°09'0 0.0
2018-Jun-20 10:29N 47°18' W 002°09'0 0.0
2018-Jun-20 09:58N 47°18' W 002°09'0 0.0
2018-Jun-20 08:31N 47°18' W 002°09'0 0.0
2018-Jun-20 08:07N 47°18' W 002°09'0 0.0
2018-Jun-20 07:59N 47°18' W 002°09'0 0.0
2018-Jun-20 07:29N 47°18' W 002°09'0 0.0
2018-Jun-20 06:59N 47°18' W 002°09'0 0.0
2018-Jun-20 06:29N 47°18' W 002°09'0 0.0
2018-Jun-20 05:58N 47°18' W 002°09'0 0.0
2018-Jun-20 05:28N 47°18' W 002°09'0 0.0
2018-Jun-20 04:58N 47°18' W 002°09'0 0.0
2018-Jun-20 04:29N 47°18' W 002°09'0 0.0
2018-Jun-20 03:59N 47°18' W 002°09'0 0.0
2018-Jun-20 03:29N 47°18' W 002°09'0 0.4
2018-Jun-20 03:00N 47°18' W 002°09'3 6.4
2018-Jun-20 02:30N 47°15' W 002°13'612.5
2018-Jun-20 02:00N 47°10' W 002°18'510.2
2018-Jun-20 01:30N 47°06' W 002°23'713.4
2018-Jun-20 01:00N 47°02' W 002°31'714.5
2018-Jun-20 00:30N 46°59' W 002°41'815.5
2018-Jun-19 23:58N 47°01' W 002°53'1315.8
2018-Jun-19 23:09N 47°04' W 003°11'417.1
2018-Jun-19 22:55N 47°05' W 003°17'917.4
2018-Jun-19 22:24N 47°10' W 003°28'816.7
2018-Jun-19 21:57N 47°14' W 003°38'816.1
2018-Jun-19 21:26N 47°17' W 003°49'5817.4
2018-Jun-19 18:08N 47°49' W 005°00'217.3
2018-Jun-19 18:00N 47°50' W 005°03'1016.9
2018-Jun-19 17:23N 47°56' W 005°16'1216.5
2018-Jun-19 16:38N 48°04' W 005°30'7411.7
2018-Jun-19 10:16N 49°14' W 004°52'613.4
2018-Jun-19 09:49N 49°16' W 004°45'4113.8
2018-Jun-19 06:49N 49°38' W 003°50'915.4
2018-Jun-19 06:16N 49°42' W 003°38'416.0
2018-Jun-19 06:00N 49°44' W 003°33'816.3
2018-Jun-19 05:30N 49°49' W 003°22'816.5
2018-Jun-19 05:00N 49°53' W 003°11'816.6
2018-Jun-19 04:30N 49°57' W 003°00'816.4
2018-Jun-19 04:00N 49°60' W 002°48'915.9
2018-Jun-19 03:25N 50°03' W 002°35'3612.9
2018-Jun-19 00:40N 49°57' W 001°40'511.5
2018-Jun-19 00:14N 49°55' W 001°33'311.4
2018-Jun-18 23:59N 49°54' W 001°29'510.8
2018-Jun-18 23:29N 49°53' W 001°21'510.3
2018-Jun-18 22:59N 49°51' W 001°13'510.7
2018-Jun-18 22:29N 49°49' W 001°06'611.7
2018-Jun-18 22:00N 49°47' W 000°58'613.0
2018-Jun-18 21:30N 49°44' W 000°49'714.1
2018-Jun-18 21:00N 49°41' W 000°39'815.1
2018-Jun-18 20:30N 49°38' W 000°28'815.6
2018-Jun-18 20:00N 49°34' W 000°17'715.0
2018-Jun-18 19:30N 49°32' W 000°07'611.5
2018-Jun-18 19:00N 49°30' E 000°02'510.1
2018-Jun-18 18:30N 49°28' E 000°09'1 2.3
2018-Jun-18 18:00N 49°27' E 000°10'0 0.0
2018-Jun-18 17:30N 49°27' E 000°10'0 0.0
2018-Jun-18 17:00N 49°27' E 000°10'0 0.0
2018-Jun-18 16:30N 49°27' E 000°10'0 0.0
2018-Jun-18 16:00N 49°27' E 000°10'0 0.0
2018-Jun-18 15:30N 49°27' E 000°10'0 0.0
2018-Jun-18 15:00N 49°27' E 000°10'0 0.0
2018-Jun-18 14:30N 49°27' E 000°10'0 0.0
2018-Jun-18 14:00N 49°27' E 000°10'0 0.0
2018-Jun-18 13:30N 49°27' E 000°10'0 0.0
2018-Jun-18 13:00N 49°27' E 000°10'0 0.0
2018-Jun-18 12:30N 49°27' E 000°10'0 0.0
2018-Jun-18 12:00N 49°27' E 000°10'0 0.0
2018-Jun-18 11:30N 49°27' E 000°10'0 0.0
2018-Jun-18 11:00N 49°27' E 000°10'0 0.0
2018-Jun-18 10:30N 49°27' E 000°10'0 0.0
2018-Jun-18 10:00N 49°27' E 000°10'0 0.0
2018-Jun-18 09:30N 49°27' E 000°10'0 0.0
2018-Jun-18 09:00N 49°27' E 000°10'0 0.0
2018-Jun-18 08:30N 49°27' E 000°10'0 0.0
2018-Jun-18 08:00N 49°27' E 000°10'0 0.0
2018-Jun-18 07:30N 49°27' E 000°10'0 0.0
2018-Jun-18 07:00N 49°27' E 000°10'0 0.0
2018-Jun-18 06:30N 49°27' E 000°10'0 0.0
2018-Jun-18 06:00N 49°27' E 000°10'0 0.0
2018-Jun-18 05:30N 49°27' E 000°10'0 0.0
2018-Jun-18 05:00N 49°27' E 000°10'0 0.0
2018-Jun-18 04:30N 49°27' E 000°10'1 1.2
2018-Jun-18 04:01N 49°27' E 000°10'4 7.4
2018-Jun-18 03:31N 49°29' E 000°05'612.6
2018-Jun-18 03:00N 49°31' W 000°05'4 7.1
2018-Jun-18 02:31N 49°32' W 000°10'3 5.6
2018-Jun-18 02:00N 49°35' W 000°11'3 5.4
2018-Jun-18 01:31N 49°38' W 000°11'3 5.1
2018-Jun-18 01:00N 49°40' W 000°11'3 5.2
2018-Jun-18 00:30N 49°43' W 000°10'2 4.0
2018-Jun-18 00:01N 49°45' W 000°09'1 2.8
2018-Jun-17 23:31N 49°44' W 000°11'1 2.6
2018-Jun-17 23:00N 49°44' W 000°13'0 0.7
2018-Jun-17 22:30N 49°44' W 000°14'3 7.0
2018-Jun-17 22:01N 49°47' W 000°12'510.2
2018-Jun-17 21:31N 49°52' W 000°09'510.8
2018-Jun-17 21:00N 49°57' W 000°08'610.9
2018-Jun-17 20:29N 50°03' W 000°07'611.0
2018-Jun-17 19:55N 50°09' W 000°07'511.0
2018-Jun-17 19:29N 50°14' W 000°06'1310.4
2018-Jun-17 18:12N 50°27' W 000°03'512.9
2018-Jun-17 17:47N 50°29' E 000°04'513.5
2018-Jun-17 17:27N 50°31' E 000°11'613.4
2018-Jun-17 17:01N 50°33' E 000°20'713.1
2018-Jun-17 16:31N 50°35' E 000°29'612.5
2018-Jun-17 16:00N 50°38' E 000°38'612.1
2018-Jun-17 15:30N 50°41' E 000°46'611.6
2018-Jun-17 15:01N 50°44' E 000°54'611.3
2018-Jun-17 14:31N 50°48' E 001°01'510.8
2018-Jun-17 14:01N 50°51' E 001°08'5 9.9
2018-Jun-17 13:30N 50°54' E 001°15'4 8.8
2018-Jun-17 13:01N 50°56' E 001°20'5 9.5
2018-Jun-17 12:30N 50°60' E 001°25'511.0
2018-Jun-17 12:01N 51°03' E 001°32'611.4
2018-Jun-17 11:30N 51°06' E 001°40'713.3
2018-Jun-17 11:00N 51°02' E 001°48'713.7
2018-Jun-17 10:31N 51°03' E 001°59'712.7
2018-Jun-17 09:57N 51°02' E 002°10'1 1.6
2018-Jun-17 09:11N 51°01' E 002°11'0 0.0
2018-Jun-17 07:44N 51°01' E 002°11'0 0.0
2018-Jun-17 06:44N 51°01' E 002°11'0 0.0
2018-Jun-17 04:56N 51°01' E 002°11'0 0.0
2018-Jun-17 04:23N 51°01' E 002°11'0 0.0
2018-Jun-17 03:56N 51°01' E 002°11'0 0.0
2018-Jun-17 03:23N 51°01' E 002°11'0 0.0
2018-Jun-17 02:59N 51°01' E 002°11'0 0.0
2018-Jun-17 02:26N 51°01' E 002°11'0 0.0
2018-Jun-17 01:56N 51°01' E 002°11'0 0.0
2018-Jun-17 01:26N 51°01' E 002°11'0 0.0
2018-Jun-17 00:59N 51°01' E 002°11'0 0.0
2018-Jun-17 00:17N 51°01' E 002°11'0 0.0
2018-Jun-16 23:23N 51°01' E 002°11'0 0.0
2018-Jun-16 22:53N 51°01' E 002°11'0 0.0
2018-Jun-16 22:11N 51°01' E 002°11'0 0.0
2018-Jun-16 21:11N 51°01' E 002°11'0 0.0
2018-Jun-16 20:59N 51°01' E 002°11'0 0.0
2018-Jun-16 20:26N 51°01' E 002°11'0 0.0
2018-Jun-16 19:59N 51°01' E 002°11'0 0.0
2018-Jun-16 16:35N 51°01' E 002°11'0 0.0
2018-Jun-16 16:17N 51°01' E 002°11'0 0.0
2018-Jun-16 14:53N 51°01' E 002°11'0 0.0
2018-Jun-16 14:05N 51°01' E 002°11'0 0.0
2018-Jun-16 11:26N 51°01' E 002°11'0 0.0
2018-Jun-16 10:59N 51°01' E 002°11'0 0.0
2018-Jun-16 08:35N 51°01' E 002°11'0 0.1
2018-Jun-16 08:29N 51°01' E 002°11'0 0.0
2018-Jun-16 07:59N 51°01' E 002°11'0 0.0
2018-Jun-16 07:31N 51°01' E 002°11'1 1.2
2018-Jun-16 07:00N 51°01' E 002°11'4 7.0
2018-Jun-16 06:30N 51°03' E 002°06'815.6
2018-Jun-16 06:00N 51°03' E 001°53'5 9.3
2018-Jun-16 05:30N 51°04' E 001°46'611.3
2018-Jun-16 05:00N 51°08' E 001°40'612.9
2018-Jun-16 04:30N 51°13' E 001°46'612.3
2018-Jun-16 04:00N 51°18' E 001°52'612.1
2018-Jun-16 03:30N 51°23' E 001°57'5 9.7
2018-Jun-16 03:00N 51°25' E 002°04'713.2
2018-Jun-16 02:30N 51°22' E 002°14'611.2
2018-Jun-16 02:00N 51°22' E 002°23'611.3
2018-Jun-16 01:30N 51°23' E 002°31'612.1
2018-Jun-16 01:00N 51°23' E 002°41'611.3
2018-Jun-16 00:30N 51°22' E 002°50'815.6
2018-Jun-16 00:00N 51°25' E 003°02'816.3
2018-Jun-15 23:30N 51°25' E 003°15'816.5
2018-Jun-15 23:00N 51°25' E 003°28'714.9
2018-Jun-15 22:30N 51°27' E 003°40'2 4.6
2018-Jun-15 21:59N 51°29' E 003°42'0 0.0
2018-Jun-15 21:29N 51°29' E 003°42'0 0.0
2018-Jun-15 20:59N 51°29' E 003°42'0 0.0
2018-Jun-15 20:29N 51°29' E 003°42'0 0.0
2018-Jun-15 19:59N 51°29' E 003°42'0 0.0
2018-Jun-15 19:29N 51°29' E 003°42'0 0.0
2018-Jun-15 18:59N 51°29' E 003°42'0 0.0
2018-Jun-15 18:29N 51°29' E 003°42'0 0.0
2018-Jun-15 17:59N 51°29' E 003°42'0 0.0
2018-Jun-15 17:26N 51°29' E 003°42'0 0.0
2018-Jun-15 16:59N 51°29' E 003°42'0 0.0
2018-Jun-15 16:29N 51°29' E 003°42'0 0.0
2018-Jun-15 15:59N 51°29' E 003°42'0 0.0
2018-Jun-15 15:29N 51°29' E 003°42'0 0.0
2018-Jun-15 14:59N 51°29' E 003°42'0 0.0
2018-Jun-15 14:29N 51°29' E 003°42'0 0.0
2018-Jun-15 13:59N 51°29' E 003°42'0 0.0
2018-Jun-15 13:29N 51°29' E 003°42'0 0.0
2018-Jun-15 12:59N 51°29' E 003°42'0 0.0
2018-Jun-15 12:29N 51°29' E 003°42'0 0.0
2018-Jun-15 11:59N 51°29' E 003°42'0 0.0
2018-Jun-15 11:26N 51°29' E 003°42'0 0.0
2018-Jun-15 10:59N 51°29' E 003°42'0 0.0
2018-Jun-15 10:29N 51°29' E 003°42'0 0.0
2018-Jun-15 09:59N 51°29' E 003°42'0 0.0
2018-Jun-15 09:29N 51°29' E 003°42'0 0.0
2018-Jun-15 08:59N 51°29' E 003°42'0 0.0
2018-Jun-15 08:29N 51°29' E 003°42'0 0.0
2018-Jun-15 07:59N 51°29' E 003°42'0 0.0
2018-Jun-15 07:26N 51°29' E 003°42'0 0.0
2018-Jun-15 06:59N 51°29' E 003°42'0 0.0
2018-Jun-15 06:29N 51°29' E 003°42'0 0.0
2018-Jun-15 05:56N 51°29' E 003°42'0 0.0
2018-Jun-15 05:29N 51°29' E 003°42'0 0.0
2018-Jun-15 04:59N 51°29' E 003°42'0 0.0
2018-Jun-15 04:29N 51°29' E 003°42'0 0.0
2018-Jun-15 03:59N 51°29' E 003°42'0 0.0
2018-Jun-15 03:29N 51°29' E 003°42'0 0.0
2018-Jun-15 02:59N 51°29' E 003°42'0 0.0
2018-Jun-15 02:29N 51°29' E 003°42'0 0.0
2018-Jun-15 01:59N 51°29' E 003°42'0 0.0
2018-Jun-15 01:29N 51°29' E 003°42'0 0.0
2018-Jun-15 00:59N 51°29' E 003°42'0 0.0
2018-Jun-15 00:29N 51°29' E 003°42'0 0.0
2018-Jun-14 23:59N 51°29' E 003°42'0 0.0
2018-Jun-14 23:29N 51°29' E 003°42'0 0.0
2018-Jun-14 22:59N 51°29' E 003°42'0 0.0
2018-Jun-14 22:29N 51°29' E 003°42'0 0.0
2018-Jun-14 21:59N 51°29' E 003°42'0 0.0
2018-Jun-14 21:29N 51°29' E 003°42'0 0.0
2018-Jun-14 20:59N 51°29' E 003°42'0 0.0
2018-Jun-14 20:29N 51°29' E 003°42'0 0.0
2018-Jun-14 19:59N 51°29' E 003°42'0 0.0
2018-Jun-14 19:29N 51°29' E 003°42'0 1.0
2018-Jun-14 19:01N 51°28' E 003°43'2 4.4
2018-Jun-14 18:30N 51°27' E 003°40'4 7.7
2018-Jun-14 18:01N 51°26' E 003°34'612.1
2018-Jun-14 17:31N 51°25' E 003°24'612.7
2018-Jun-14 17:00N 51°25' E 003°14'611.5
2018-Jun-14 16:30N 51°24' E 003°05'611.6
2018-Jun-14 16:00N 51°23' E 002°56'714.1
2018-Jun-14 15:31N 51°22' E 002°45'5 9.5
2018-Jun-14 15:01N 51°22' E 002°37'4 8.4
2018-Jun-14 14:30N 51°27' E 002°37'5 9.3
2018-Jun-14 14:00N 51°30' E 002°42'2 3.9
2018-Jun-14 13:30N 51°29' E 002°41'1 1.1
2018-Jun-14 13:00N 51°29' E 002°40'0 0.4
2018-Jun-14 12:25N 51°29' E 002°41'1 3.3
2018-Jun-14 12:00N 51°28' E 002°39'2 4.5
2018-Jun-14 11:29N 51°28' E 002°43'2 3.0
2018-Jun-14 10:54N 51°28' E 002°46'2 2.7
2018-Jun-14 10:20N 51°28' E 002°43'0 1.2
2018-Jun-14 09:59N 51°28' E 002°43'0 0.8
2018-Jun-14 09:30N 51°28' E 002°42'1 1.2
2018-Jun-14 09:00N 51°28' E 002°41'4 8.9
2018-Jun-14 08:30N 51°24' E 002°42'611.6
2018-Jun-14 08:00N 51°22' E 002°51'714.9
2018-Jun-14 07:30N 51°24' E 003°02'815.4
2018-Jun-14 07:00N 51°25' E 003°15'816.3
2018-Jun-14 06:30N 51°25' E 003°28'612.3
2018-Jun-14 06:00N 51°26' E 003°37'713.2
2018-Jun-14 05:30N 51°22' E 003°45'713.9
2018-Jun-14 05:01N 51°23' E 003°56'4 7.5
2018-Jun-14 04:30N 51°23' E 004°02'713.0
2018-Jun-14 04:00N 51°23' E 004°13'3 7.0
2018-Jun-14 03:30N 51°20' E 004°16'0 0.0
2018-Jun-14 03:00N 51°21' E 004°16'0 0.0
2018-Jun-14 02:31N 51°21' E 004°16'0 0.0
2018-Jun-14 02:00N 51°21' E 004°16'0 0.0
2018-Jun-14 01:31N 51°21' E 004°16'0 0.0
2018-Jun-14 01:00N 51°20' E 004°16'0 0.0
2018-Jun-14 00:29N 51°21' E 004°16'0 0.0
2018-Jun-14 00:01N 51°20' E 004°16'0 0.0
2018-Jun-13 23:31N 51°21' E 004°16'0 0.0
2018-Jun-13 22:59N 51°20' E 004°16'0 0.0
2018-Jun-13 22:31N 51°21' E 004°16'0 0.0
2018-Jun-13 22:01N 51°20' E 004°16'0 0.0
2018-Jun-13 21:31N 51°20' E 004°16'0 0.0
2018-Jun-13 20:59N 51°20' E 004°16'0 0.0
2018-Jun-13 20:29N 51°20' E 004°16'0 0.0
2018-Jun-13 19:59N 51°20' E 004°16'0 0.0
2018-Jun-13 19:30N 51°20' E 004°16'0 0.0
2018-Jun-13 19:00N 51°21' E 004°16'0 0.0
2018-Jun-13 18:30N 51°20' E 004°16'0 0.0
2018-Jun-13 18:01N 51°21' E 004°16'0 0.0
2018-Jun-13 17:30N 51°21' E 004°16'0 0.0
2018-Jun-13 16:59N 51°21' E 004°16'0 0.0
2018-Jun-13 16:30N 51°21' E 004°16'0 0.0
2018-Jun-13 16:00N 51°21' E 004°16'0 0.0
2018-Jun-13 15:30N 51°20' E 004°16'0 0.0
2018-Jun-13 15:01N 51°21' E 004°16'0 0.0
2018-Jun-13 14:30N 51°21' E 004°16'0 0.0
2018-Jun-13 14:00N 51°21' E 004°16'0 0.0
2018-Jun-13 13:30N 51°21' E 004°16'0 0.0
2018-Jun-13 13:00N 51°21' E 004°16'0 0.0
2018-Jun-13 12:31N 51°21' E 004°16'0 0.0
2018-Jun-13 12:00N 51°20' E 004°16'0 0.0
2018-Jun-13 11:30N 51°20' E 004°16'0 0.0
2018-Jun-13 11:00N 51°21' E 004°16'0 0.0
2018-Jun-13 10:30N 51°20' E 004°16'0 0.0
2018-Jun-13 10:00N 51°20' E 004°16'0 0.0
2018-Jun-13 09:29N 51°20' E 004°16'0 0.0
2018-Jun-13 09:00N 51°20' E 004°16'0 0.0
2018-Jun-13 08:30N 51°20' E 004°16'0 0.0
2018-Jun-13 08:01N 51°20' E 004°16'0 0.0
2018-Jun-13 07:30N 51°21' E 004°16'0 0.0
2018-Jun-13 06:59N 51°20' E 004°16'0 0.0
2018-Jun-13 06:29N 51°21' E 004°16'0 0.0
2018-Jun-13 05:57N 51°20' E 004°16'0 0.0
2018-Jun-13 05:30N 51°20' E 004°16'0 0.0
2018-Jun-13 05:01N 51°21' E 004°16'0 0.0
2018-Jun-13 04:30N 51°21' E 004°16'0 0.0
2018-Jun-13 04:01N 51°20' E 004°16'0 0.0
2018-Jun-13 03:31N 51°21' E 004°16'0 0.0
2018-Jun-13 03:01N 51°20' E 004°16'0 0.0
2018-Jun-13 02:31N 51°21' E 004°16'0 0.0
2018-Jun-13 02:01N 51°20' E 004°16'0 0.0
2018-Jun-13 01:30N 51°20' E 004°16'0 0.0
2018-Jun-13 01:00N 51°21' E 004°16'0 0.0
2018-Jun-13 00:30N 51°21' E 004°16'0 0.0
2018-Jun-13 00:00N 51°21' E 004°16'0 0.0
2018-Jun-12 23:31N 51°21' E 004°16'  

Dump ship's entire track history